Time;durP1;ratioP1;P1;durP2;ratioP2;P2;SDS_P1;SDS_P2;PMS_P1;PMS_P2;Temp;Humidity;BMP_temperature;BMP_pressure;BME280_temperature;BME280_humidity;BME280_pressure;Samples;Min_cycle;Max_cycle;Signal;HPM_P1;HPM_P2
2022/05/26 00:01:12;;;;;;;19.50;11.05;;;14.00;99.90;;;;;;5147337;27;20054;-62
2022/05/26 00:03:41;;;;;;;18.25;11.05;;;14.00;99.90;;;;;;5145500;27;20369;-61
2022/05/26 00:06:09;;;;;;;19.13;11.05;;;14.00;99.90;;;;;;5144884;27;20376;-62
2022/05/26 00:08:36;;;;;;;18.35;11.18;;;14.00;99.90;;;;;;5140199;27;20053;-61
2022/05/26 00:11:05;;;;;;;17.98;11.60;;;14.10;99.90;;;;;;5143900;27;20383;-61
2022/05/26 00:13:30;;;;;;;21.60;11.55;;;14.10;99.90;;;;;;5144485;27;20079;-63
2022/05/26 00:15:56;;;;;;;17.27;11.60;;;14.10;99.90;;;;;;5145808;27;20050;-61
2022/05/26 00:18:22;;;;;;;22.00;11.80;;;14.20;99.90;;;;;;5145045;27;20043;-61
2022/05/26 00:20:48;;;;;;;25.02;13.05;;;14.20;99.90;;;;;;5143209;27;20101;-62
2022/05/26 00:23:14;;;;;;;22.42;12.45;;;14.20;99.90;;;;;;5146405;27;20072;-62
2022/05/26 00:25:39;;;;;;;26.63;12.30;;;14.10;99.90;;;;;;5145552;27;20409;-61
2022/05/26 00:28:06;;;;;;;26.05;12.63;;;14.20;99.90;;;;;;5144990;27;20066;-61
2022/05/26 00:30:32;;;;;;;22.05;11.65;;;14.10;99.90;;;;;;5144003;27;20038;-64
2022/05/26 00:32:59;;;;;;;23.77;12.65;;;14.20;99.90;;;;;;5145479;27;20038;-61
2022/05/26 00:35:26;;;;;;;23.00;11.80;;;14.20;99.90;;;;;;5144886;27;20122;-62
2022/05/26 00:37:51;;;;;;;25.08;13.07;;;14.10;99.90;;;;;;5146626;27;20117;-62
2022/05/26 00:40:18;;;;;;;21.40;12.25;;;14.10;99.90;;;;;;5142829;27;20539;-61
2022/05/26 00:42:45;;;;;;;30.92;12.75;;;14.10;99.90;;;;;;5144125;27;20047;-61
2022/05/26 00:45:10;;;;;;;21.55;11.88;;;14.10;99.90;;;;;;5146512;27;20039;-61
2022/05/26 00:47:44;;;;;;;26.75;12.95;;;14.10;99.90;;;;;;5144844;27;20346;-61
2022/05/26 00:50:26;;;;;;;24.00;12.43;;;14.10;99.90;;;;;;5142097;27;20113;-61
2022/05/26 00:53:12;;;;;;;24.00;12.95;;;14.10;99.90;;;;;;5143869;27;20042;-61
2022/05/26 00:55:43;;;;;;;24.80;11.77;;;14.10;99.90;;;;;;5119897;27;20119;-61
2022/05/26 00:58:15;;;;;;;25.30;13.05;;;13.90;99.90;;;;;;5143683;27;20031;-61
2022/05/26 01:00:41;;;;;;;26.10;12.45;;;14.10;99.90;;;;;;5142541;27;20049;-61
2022/05/26 01:03:27;;;;;;;25.40;12.48;;;14.20;99.90;;;;;;5124568;27;20066;-61
2022/05/26 01:06:01;;;;;;;24.38;13.23;;;14.10;99.90;;;;;;5140386;27;20045;-61
2022/05/26 01:08:33;;;;;;;;;;;14.10;99.90;;;;;;5143413;27;20063;-61
2022/05/26 01:10:58;;;;;;;26.98;13.00;;;14.10;99.90;;;;;;5142344;27;19960;-61
2022/05/26 01:13:24;;;;;;;26.40;12.13;;;14.10;99.90;;;;;;5143937;27;20400;-61
2022/05/26 01:16:08;;;;;;;26.77;12.77;;;14.20;99.90;;;;;;5145286;27;20443;-62
2022/05/26 01:18:42;;;;;;;26.33;11.55;;;14.10;99.90;;;;;;5119031;27;20112;-61
2022/05/26 01:21:23;;;;;;;27.80;13.25;;;14.20;99.90;;;;;;5142805;27;20051;-61
2022/05/26 01:24:14;;;;;;;27.13;12.50;;;14.20;99.90;;;;;;5145101;27;20459;-62
2022/05/26 01:27:03;;;;;;;29.95;12.25;;;14.20;99.90;;;;;;5140969;27;20031;-62
2022/05/26 01:29:48;;;;;;;22.40;11.48;;;14.20;99.90;;;;;;5140668;27;20308;-62
2022/05/26 01:32:55;;;;;;;22.65;11.80;;;14.20;99.90;;;;;;5143081;27;20067;-61
2022/05/26 01:35:30;;;;;;;21.52;11.32;;;14.20;99.90;;;;;;5118966;27;20091;-62
2022/05/26 01:38:09;;;;;;;25.58;11.07;;;14.20;99.90;;;;;;5140338;27;20420;-61
2022/05/26 01:40:46;;;;;;;28.25;12.35;;;14.20;99.90;;;;;;5137190;27;20045;-61
2022/05/26 01:43:25;;;;;;;23.08;10.90;;;14.20;99.90;;;;;;5145601;27;20068;-64
2022/05/26 01:46:17;;;;;;;30.55;12.07;;;14.20;99.90;;;;;;5145672;27;20031;-61
2022/05/26 01:48:49;;;;;;;24.48;11.27;;;14.20;99.90;;;;;;5127306;27;20155;-63
2022/05/26 01:51:31;;;;;;;27.23;10.38;;;14.20;99.90;;;;;;5140157;27;20034;-61
2022/05/26 01:54:28;;;;;;;25.40;11.93;;;14.20;99.90;;;;;;5138674;27;20122;-62
2022/05/26 01:57:08;;;;;;;26.48;10.43;;;14.20;99.90;;;;;;5140862;27;20363;-62
2022/05/26 01:59:37;;;;;;;30.45;10.82;;;14.20;99.90;;;;;;5136100;27;20127;-64
2022/05/26 02:02:07;;;;;;;27.35;9.73;;;14.20;99.90;;;;;;5104656;27;20049;-61
2022/05/26 02:04:50;;;;;;;29.98;10.00;;;14.20;99.90;;;;;;5139075;27;20031;-61
2022/05/26 02:07:37;;;;;;;29.65;9.40;;;14.30;99.90;;;;;;5136701;27;20027;-61
2022/05/26 02:10:08;;;;;;;27.45;9.65;;;14.30;99.90;;;;;;5137176;27;20113;-64
2022/05/26 02:12:42;;;;;;;27.38;9.35;;;14.30;99.90;;;;;;5139137;27;20454;-61
2022/05/26 02:15:12;;;;;;;28.92;9.48;;;14.30;99.90;;;;;;5144518;27;20042;-61
2022/05/26 02:17:47;;;;;;;28.70;9.00;;;14.30;99.90;;;;;;5143387;27;20119;-61
2022/05/26 02:20:26;;;;;;;34.90;9.60;;;14.30;99.90;;;;;;5138872;27;20110;-62
2022/05/26 02:23:26;;;;;;;28.60;9.23;;;14.40;99.90;;;;;;5142223;27;20053;-61
2022/05/26 02:25:52;;;;;;;26.73;8.65;;;14.40;99.90;;;;;;5144027;27;20027;-62
2022/05/26 02:28:18;;;;;;;23.33;7.95;;;14.40;99.90;;;;;;5143161;27;20102;-62
2022/05/26 02:30:44;;;;;;;29.17;8.30;;;14.40;99.90;;;;;;5139584;27;20523;-61
2022/05/26 02:33:14;;;;;;;27.73;8.98;;;14.40;99.90;;;;;;5144449;27;20035;-61
2022/05/26 02:35:43;;;;;;;27.80;9.05;;;14.50;99.90;;;;;;5144905;27;20053;-62
2022/05/26 02:38:22;;;;;;;27.55;9.45;;;14.40;99.90;;;;;;5142038;27;20099;-61
2022/05/26 02:40:48;;;;;;;26.23;7.95;;;14.40;99.90;;;;;;5141709;27;20210;-62
2022/05/26 02:43:28;;;;;;;33.10;8.52;;;14.40;99.90;;;;;;5140853;27;20027;-61
2022/05/26 02:46:28;;;;;;;33.13;8.02;;;14.50;99.90;;;;;;5137133;27;20035;-61
2022/05/26 02:49:25;;;;;;;30.63;8.32;;;14.50;99.90;;;;;;5138449;27;20039;-61
2022/05/26 02:52:11;;;;;;;32.13;8.98;;;14.60;99.90;;;;;;5144031;27;20436;-62
2022/05/26 02:54:56;;;;;;;29.65;6.80;;;14.60;99.90;;;;;;5139458;27;20043;-62
2022/05/26 02:57:47;;;;;;;29.90;8.98;;;14.60;99.90;;;;;;5139903;27;20109;-62
2022/05/26 03:00:23;;;;;;;30.58;7.50;;;14.60;99.90;;;;;;5102287;27;20383;-63
2022/05/26 03:03:07;;;;;;;36.92;8.07;;;14.50;99.90;;;;;;5141797;27;20070;-63
2022/05/26 03:05:48;;;;;;;31.05;7.80;;;14.60;99.90;;;;;;5115565;27;20114;-62
2022/05/26 03:08:18;;;;;;;35.58;8.10;;;14.60;99.90;;;;;;5136838;27;20135;-62
2022/05/26 03:10:49;;;;;;;35.05;7.90;;;14.60;99.90;;;;;;5138685;27;20042;-61
2022/05/26 03:13:14;;;;;;;38.50;8.55;;;14.60;99.90;;;;;;5138849;27;20038;-62
2022/05/26 03:15:40;;;;;;;26.30;6.75;;;14.50;99.90;;;;;;5141069;27;20047;-61
2022/05/26 03:18:06;;;;;;;26.38;6.63;;;14.50;99.90;;;;;;5141347;27;20050;-62
2022/05/26 03:20:32;;;;;;;24.05;5.65;;;14.50;99.90;;;;;;5141329;27;20111;-61
2022/05/26 03:22:57;;;;;;;30.80;5.65;;;14.50;99.90;;;;;;5141902;27;20059;-62
2022/05/26 03:25:23;;;;;;;18.38;4.93;;;14.50;99.90;;;;;;5142273;27;20070;-62
2022/05/26 03:27:49;;;;;;;20.52;5.00;;;14.50;99.90;;;;;;5143991;27;20023;-65
2022/05/26 03:30:15;;;;;;;16.90;4.30;;;14.40;99.90;;;;;;5139467;27;20343;-62
2022/05/26 03:32:46;;;;;;;19.20;4.57;;;14.40;99.90;;;;;;5142511;27;20043;-62
2022/05/26 03:43:20;;;;;;;14.80;3.90;;;14.30;99.90;;;;;;5137843;27;20045;-60
2022/05/26 03:45:46;;;;;;;14.80;3.72;;;14.30;99.90;;;;;;5120541;27;20041;-61
2022/05/26 03:48:12;;;;;;;15.50;3.55;;;14.30;99.90;;;;;;5141474;27;20056;-63
2022/05/26 03:50:38;;;;;;;16.65;3.17;;;14.30;99.90;;;;;;5140247;27;20038;-62
2022/05/26 03:53:04;;;;;;;13.70;3.30;;;14.30;99.90;;;;;;5140579;27;20089;-62
2022/05/26 03:55:29;;;;;;;13.60;3.17;;;14.30;99.90;;;;;;5141967;27;20081;-62
2022/05/26 03:57:55;;;;;;;13.20;3.20;;;14.30;99.90;;;;;;5147270;27;20091;-60
2022/05/26 04:00:23;;;;;;;13.20;3.15;;;14.30;99.90;;;;;;5139600;27;20031;-62
2022/05/26 04:02:49;;;;;;;13.65;2.80;;;14.30;99.90;;;;;;5145035;27;20035;-62
2022/05/26 04:05:14;;;;;;;13.57;3.42;;;14.30;99.90;;;;;;5146750;27;20262;-63
2022/05/26 04:07:40;;;;;;;12.40;3.08;;;14.30;99.90;;;;;;5146131;27;20172;-62
2022/05/26 04:10:08;;;;;;;13.40;2.80;;;14.30;99.90;;;;;;5143317;27;20049;-64
2022/05/26 04:12:35;;;;;;;16.98;2.88;;;14.30;99.90;;;;;;5141307;27;20515;-62
2022/05/26 04:15:02;;;;;;;13.88;2.90;;;14.30;99.90;;;;;;5145880;27;20524;-62
2022/05/26 04:17:28;;;;;;;15.75;3.15;;;14.30;99.90;;;;;;5141691;27;20156;-62
2022/05/26 04:19:54;;;;;;;15.23;3.40;;;14.30;99.90;;;;;;5145418;27;20125;-63
2022/05/26 04:22:23;;;;;;;14.70;3.40;;;14.30;99.90;;;;;;5145516;27;20035;-62
2022/05/26 04:24:51;;;;;;;18.00;4.05;;;14.40;99.90;;;;;;5144318;27;20115;-62
2022/05/26 04:27:19;;;;;;;17.05;4.10;;;14.30;99.90;;;;;;5143745;27;20035;-63
2022/05/26 04:29:44;;;;;;;12.57;3.50;;;14.40;99.90;;;;;;5143940;27;20542;-62
2022/05/26 04:32:11;;;;;;;20.52;4.50;;;14.40;99.90;;;;;;5144530;27;20061;-60
2022/05/26 04:34:37;;;;;;;14.90;4.30;;;14.40;99.90;;;;;;5145573;27;20543;-60
2022/05/26 04:37:04;;;;;;;12.23;3.40;;;14.40;99.90;;;;;;5145682;27;20038;-63
2022/05/26 04:39:30;;;;;;;12.68;3.72;;;14.50;99.90;;;;;;5142420;27;20122;-62
2022/05/26 04:42:00;;;;;;;14.82;3.80;;;14.50;99.90;;;;;;5145758;27;20039;-63
2022/05/26 04:44:35;;;;;;;15.95;3.80;;;14.60;99.90;;;;;;5146057;27;20066;-62
2022/05/26 04:47:01;;;;;;;13.88;3.20;;;14.60;99.90;;;;;;5141824;27;20165;-63
2022/05/26 04:49:27;;;;;;;15.18;3.35;;;14.60;99.90;;;;;;5142084;27;20531;-62
2022/05/26 04:51:54;;;;;;;17.38;3.58;;;14.70;99.90;;;;;;5143092;27;20039;-63
2022/05/26 04:54:20;;;;;;;13.77;2.75;;;14.70;99.90;;;;;;5144625;27;20483;-62
2022/05/26 04:56:46;;;;;;;15.15;2.83;;;14.70;99.90;;;;;;5145602;27;20027;-62
2022/05/26 04:59:11;;;;;;;12.90;2.70;;;14.70;99.90;;;;;;5148379;27;20396;-63
2022/05/26 05:01:37;;;;;;;11.75;2.90;;;14.70;99.90;;;;;;5145523;27;20364;-62
2022/05/26 05:04:03;;;;;;;11.30;2.92;;;14.70;99.90;;;;;;5145902;27;20043;-62
2022/05/26 05:06:29;;;;;;;11.05;2.47;;;14.80;99.90;;;;;;5142599;27;20043;-60
2022/05/26 05:08:55;;;;;;;13.50;2.58;;;14.90;99.90;;;;;;5143047;27;20035;-60
2022/05/26 05:11:21;;;;;;;9.40;2.53;;;15.10;99.90;;;;;;5143473;27;20031;-60
2022/05/26 05:13:47;;;;;;;7.55;2.25;;;15.20;99.90;;;;;;5143509;27;20045;-61
2022/05/26 05:16:21;;;;;;;10.95;2.60;;;15.30;99.90;;;;;;5119045;27;20052;-61
2022/05/26 05:18:47;;;;;;;10.32;2.65;;;15.50;99.90;;;;;;5142592;27;20046;-61
2022/05/26 05:21:20;;;;;;;13.43;3.03;;;15.70;99.90;;;;;;5140540;27;20039;-61
2022/05/26 05:23:50;;;;;;;12.90;2.53;;;15.90;99.90;;;;;;5143424;27;20035;-61
2022/05/26 05:26:19;;;;;;;14.82;2.47;;;16.00;99.90;;;;;;5139871;27;20448;-61
2022/05/26 05:28:49;;;;;;;10.15;2.40;;;15.90;99.90;;;;;;5142356;27;20357;-62
2022/05/26 05:31:25;;;;;;;7.70;1.98;;;16.00;99.90;;;;;;5140984;27;20428;-61
2022/05/26 05:34:10;;;;;;;11.35;2.47;;;16.00;99.90;;;;;;5142720;27;20056;-61
2022/05/26 05:36:38;;;;;;;8.60;1.70;;;16.10;99.90;;;;;;5141177;27;20035;-61
2022/05/26 05:39:04;;;;;;;8.15;1.65;;;16.00;99.90;;;;;;5140514;27;20067;-62
2022/05/26 05:41:33;;;;;;;14.30;2.20;;;16.00;99.90;;;;;;5144998;27;20118;-61
2022/05/26 05:44:00;;;;;;;9.77;2.40;;;16.00;99.90;;;;;;5143609;27;20094;-62
2022/05/26 05:46:33;;;;;;;4.72;1.67;;;16.20;99.90;;;;;;5143110;27;20050;-61
2022/05/26 05:49:02;;;;;;;9.18;1.52;;;16.20;99.90;;;;;;5138817;27;20046;-61
2022/05/26 05:51:28;;;;;;;7.05;1.70;;;16.50;99.90;;;;;;5121118;27;20046;-61
2022/05/26 05:53:55;;;;;;;7.40;1.60;;;17.40;99.90;;;;;;5142433;27;20073;-63
2022/05/26 05:56:20;;;;;;;11.93;2.10;;;18.20;99.90;;;;;;5143478;27;20046;-61
2022/05/26 05:58:46;;;;;;;8.77;2.15;;;19.20;99.90;;;;;;5141728;27;20043;-61
2022/05/26 06:01:12;;;;;;;12.32;2.20;;;20.00;99.90;;;;;;5142384;27;20035;-62
2022/05/26 06:03:39;;;;;;;8.85;2.13;;;20.50;99.90;;;;;;5143770;27;20056;-61
2022/05/26 06:06:07;;;;;;;6.13;2.10;;;21.00;99.90;;;;;;5144049;27;20078;-62
2022/05/26 06:08:34;;;;;;;8.27;2.00;;;21.50;99.90;;;;;;5139036;27;20082;-62
2022/05/26 06:10:59;;;;;;;6.80;1.55;;;21.40;99.90;;;;;;5141120;27;20049;-62
2022/05/26 06:13:26;;;;;;;7.93;2.40;;;21.00;99.90;;;;;;5144345;27;20435;-62
2022/05/26 06:15:53;;;;;;;6.18;1.75;;;20.20;99.90;;;;;;5120358;27;20057;-61
2022/05/26 06:18:19;;;;;;;20.90;9.15;;;19.40;99.90;;;;;;5118667;27;20043;-62
2022/05/26 06:20:45;;;;;;;18.20;5.53;;;18.80;99.90;;;;;;5141334;27;20477;-61
2022/05/26 06:23:11;;;;;;;9.15;2.70;;;18.70;99.90;;;;;;5141961;27;20083;-61
2022/05/26 06:25:36;;;;;;;8.48;1.70;;;18.50;99.90;;;;;;5143911;27;20031;-62
2022/05/26 06:31:03;;;;;;;9.07;1.88;;;18.60;99.90;;;;;;5057124;28;20618;-62
2022/05/26 06:38:58;;;;;;;6.60;1.58;;;18.40;99.90;;;;;;5136278;27;20359;-61
2022/05/26 06:44:09;;;;;;;5.38;2.00;;;17.90;99.90;;;;;;5143275;27;20053;-63
2022/05/26 06:46:34;;;;;;;5.80;1.50;;;17.60;99.90;;;;;;5141971;27;20111;-64
2022/05/26 06:49:00;;;;;;;4.18;1.17;;;17.60;99.90;;;;;;5141758;27;20399;-62
2022/05/26 06:51:28;;;;;;;4.75;1.27;;;17.60;99.90;;;;;;5141676;27;20058;-62
2022/05/26 06:53:55;;;;;;;5.22;1.20;;;17.60;99.90;;;;;;5139167;27;20050;-62
2022/05/26 06:56:20;;;;;;;7.10;1.38;;;17.60;99.90;;;;;;5120215;27;20027;-62
2022/05/26 06:58:46;;;;;;;4.60;1.27;;;17.50;99.90;;;;;;5141721;27;20087;-62
2022/05/26 07:01:14;;;;;;;5.47;1.05;;;17.50;99.90;;;;;;5141680;27;20104;-64
2022/05/26 07:03:40;;;;;;;5.18;1.50;;;17.40;99.90;;;;;;5142896;27;20031;-63
2022/05/26 07:06:16;;;;;;;4.38;1.40;;;17.30;99.90;;;;;;5143403;27;20427;-63
2022/05/26 07:08:43;;;;;;;4.53;1.27;;;17.30;99.90;;;;;;5140733;27;20057;-63
2022/05/26 07:11:09;;;;;;;7.88;1.73;;;17.30;99.90;;;;;;5140892;27;20119;-63
2022/05/26 07:13:35;;;;;;;4.05;1.40;;;17.40;99.90;;;;;;5143707;27;20109;-64
2022/05/26 07:16:00;;;;;;;6.20;1.17;;;17.40;99.90;;;;;;5142683;27;20135;-62
2022/05/26 07:18:27;;;;;;;3.95;0.98;;;17.60;99.90;;;;;;5120465;27;20147;-63
2022/05/26 07:20:52;;;;;;;5.88;1.40;;;17.70;99.90;;;;;;5137167;27;20066;-62
2022/05/26 07:23:18;;;;;;;5.35;1.10;;;17.90;99.90;;;;;;5142196;27;20139;-64
2022/05/26 07:25:44;;;;;;;3.95;1.15;;;17.90;99.90;;;;;;5141908;27;20502;-62
2022/05/26 07:28:13;;;;;;;6.95;1.40;;;18.10;99.90;;;;;;5143729;27;20102;-62
2022/05/26 07:30:40;;;;;;;10.13;1.30;;;18.20;99.90;;;;;;5140074;27;20088;-63
2022/05/26 07:33:06;;;;;;;6.47;1.48;;;18.20;99.90;;;;;;5143658;27;20118;-63
2022/05/26 07:35:35;;;;;;;3.38;1.20;;;18.20;99.90;;;;;;5144396;27;20148;-64
2022/05/26 07:43:34;;;;;;;8.13;1.70;;;18.20;99.90;;;;;;5127237;27;20051;-62
2022/05/26 07:46:00;;;;;;;6.45;1.40;;;18.20;99.90;;;;;;5127743;27;20054;-62
2022/05/26 07:48:26;;;;;;;4.72;1.42;;;18.30;99.90;;;;;;5108186;27;20035;-63
2022/05/26 07:50:52;;;;;;;7.15;1.13;;;18.20;99.90;;;;;;5130873;27;20044;-62
2022/05/26 07:53:17;;;;;;;5.35;1.25;;;18.10;99.90;;;;;;5137918;27;20479;-63
2022/05/26 07:55:43;;;;;;;6.85;1.30;;;18.30;99.90;;;;;;5129451;27;20332;-63
2022/05/26 07:58:10;;;;;;;3.88;1.17;;;18.40;99.90;;;;;;5115780;27;20079;-65
2022/05/26 08:00:39;;;;;;;6.80;1.20;;;18.60;99.90;;;;;;5098995;27;20047;-63
2022/05/26 08:03:09;;;;;;;8.40;1.48;;;18.80;99.90;;;;;;5115369;27;20046;-64
2022/05/26 08:05:36;;;;;;;9.75;1.90;;;18.80;99.90;;;;;;5099655;27;20399;-62
2022/05/26 08:08:02;;;;;;;11.52;1.70;;;19.10;99.90;;;;;;5121817;27;20043;-62
2022/05/26 08:10:27;;;;;;;5.45;1.42;;;19.10;99.90;;;;;;5117902;27;20364;-62
2022/05/26 08:12:53;;;;;;;6.57;1.30;;;19.10;99.90;;;;;;5115103;27;20487;-62
2022/05/26 08:15:19;;;;;;;9.18;1.50;;;19.10;99.90;;;;;;5140993;27;20055;-63
2022/05/26 08:17:45;;;;;;;6.85;1.52;;;19.00;99.90;;;;;;5138779;27;20529;-64
2022/05/26 08:20:11;;;;;;;4.35;1.10;;;19.10;99.90;;;;;;5139027;27;20039;-64
2022/05/26 08:22:38;;;;;;;5.25;1.00;;;19.20;99.90;;;;;;5142765;27;20048;-63
2022/05/26 08:25:05;;;;;;;4.93;1.30;;;19.20;99.90;;;;;;5142284;27;20035;-62
2022/05/26 08:27:31;;;;;;;6.80;2.10;;;19.20;99.90;;;;;;5144752;27;20127;-61
2022/05/26 08:29:59;;;;;;;8.00;1.90;;;19.20;99.90;;;;;;5144028;27;20471;-63
2022/05/26 08:32:28;;;;;;;3.80;1.20;;;19.20;99.90;;;;;;5123350;27;20105;-62
2022/05/26 08:35:01;;;;;;;4.05;1.20;;;19.20;99.90;;;;;;5133269;27;20054;-62
2022/05/26 08:37:27;;;;;;;7.05;1.42;;;19.10;99.90;;;;;;5136767;27;20065;-63
2022/05/26 08:39:53;;;;;;;7.47;1.42;;;19.20;99.90;;;;;;5115599;27;20589;-62
2022/05/26 08:42:28;;;;;;;5.43;1.55;;;19.30;99.90;;;;;;5114550;27;20043;-62
2022/05/26 08:44:59;;;;;;;4.40;1.20;;;19.30;99.90;;;;;;5136473;27;20039;-62
2022/05/26 08:47:40;;;;;;;4.50;1.00;;;19.30;99.90;;;;;;5139185;27;20058;-61
2022/05/26 08:50:16;;;;;;;3.75;1.05;;;19.40;99.90;;;;;;5143310;27;20053;-63
2022/05/26 08:53:19;;;;;;;7.30;1.48;;;19.40;99.90;;;;;;5143574;27;20035;-61
2022/05/26 08:55:47;;;;;;;5.35;1.33;;;19.30;99.90;;;;;;5141580;27;20035;-62
2022/05/26 08:58:18;;;;;;;4.38;1.30;;;19.10;99.90;;;;;;5140625;27;20023;-62
2022/05/26 09:00:47;;;;;;;2.88;1.17;;;19.10;99.90;;;;;;5140101;27;20022;-62
2022/05/26 09:03:26;;;;;;;4.07;1.40;;;19.10;99.90;;;;;;5139112;27;20325;-64
2022/05/26 09:06:09;;;;;;;4.25;1.10;;;19.30;99.90;;;;;;5121773;27;20530;-63
2022/05/26 09:14:23;;;;;;;4.97;1.17;;;19.70;99.90;;;;;;5145692;27;20057;-64
2022/05/26 09:16:49;;;;;;;5.47;1.38;;;19.60;99.90;;;;;;5145008;27;20134;-65
2022/05/26 09:19:20;;;;;;;4.80;1.20;;;19.50;99.90;;;;;;5140724;27;20122;-64
2022/05/26 09:21:48;;;;;;;4.38;1.00;;;19.50;99.90;;;;;;5121774;27;20054;-64
2022/05/26 09:24:22;;;;;;;3.63;1.15;;;19.50;99.90;;;;;;5140039;27;20035;-65
2022/05/26 09:27:03;;;;;;;3.72;0.90;;;19.50;99.90;;;;;;5144303;27;20090;-63
2022/05/26 09:29:35;;;;;;;5.35;1.20;;;19.30;99.90;;;;;;5142733;27;20042;-64
2022/05/26 09:32:02;;;;;;;3.03;0.90;;;19.30;99.90;;;;;;5140372;27;20027;-64
2022/05/26 09:34:32;;;;;;;5.40;1.58;;;19.20;99.90;;;;;;5145098;27;20075;-64
2022/05/26 09:37:04;;;;;;;7.78;1.80;;;19.20;99.90;;;;;;5143762;27;20039;-65
2022/05/26 09:39:34;;;;;;;4.57;1.48;;;19.10;99.90;;;;;;5141917;27;20042;-63
2022/05/26 09:42:03;;;;;;;8.77;1.63;;;19.10;99.90;;;;;;5120598;27;20118;-64
2022/05/26 09:44:44;;;;;;;7.07;1.75;;;19.10;99.90;;;;;;5121762;27;20346;-64
2022/05/26 09:47:28;;;;;;;6.28;1.98;;;19.00;99.90;;;;;;5145493;27;20038;-63
2022/05/26 09:49:57;;;;;;;7.20;1.80;;;18.90;99.90;;;;;;5136030;27;20037;-63
2022/05/26 09:52:28;;;;;;;8.55;1.95;;;18.80;99.90;;;;;;5143989;27;20440;-63
2022/05/26 09:55:15;;;;;;;6.28;1.65;;;18.60;99.90;;;;;;5107811;27;20061;-63
2022/05/26 09:57:41;;;;;;;6.40;1.50;;;18.60;99.90;;;;;;5142891;27;20042;-64
2022/05/26 10:00:17;;;;;;;6.93;1.80;;;18.60;99.90;;;;;;5140949;27;20031;-64
2022/05/26 10:02:46;;;;;;;8.10;2.00;;;18.60;99.90;;;;;;5142289;27;20033;-65
2022/05/26 10:05:28;;;;;;;5.03;1.85;;;18.90;99.90;;;;;;5142441;27;20151;-63
2022/05/26 10:08:12;;;;;;;5.35;1.60;;;19.20;99.90;;;;;;5139232;27;20093;-64
2022/05/26 10:10:41;;;;;;;9.60;2.30;;;19.60;99.90;;;;;;5139673;27;20031;-63
2022/05/26 10:13:31;;;;;;;7.03;1.80;;;19.70;99.90;;;;;;5121326;27;20043;-64
2022/05/26 10:16:16;;;;;;;8.00;2.08;;;19.70;99.90;;;;;;5141055;27;20047;-64
2022/05/26 10:19:20;;;;;;;5.57;1.63;;;19.80;99.90;;;;;;5148367;27;20180;-63
2022/05/26 10:22:33;;;;;;;4.85;1.92;;;20.10;99.90;;;;;;5146961;27;20352;-63
2022/05/26 10:25:17;;;;;;;6.45;1.88;;;20.30;99.90;;;;;;5123544;27;20126;-63
2022/05/26 10:27:51;;;;;;;8.18;1.70;;;20.20;99.90;;;;;;5117536;27;20040;-63
2022/05/26 10:30:25;;;;;;;6.43;2.00;;;20.30;99.90;;;;;;5137976;27;20043;-64
2022/05/26 10:33:28;;;;;;;8.60;2.63;;;20.30;99.90;;;;;;5144457;27;20049;-64
2022/05/26 10:36:19;;;;;;;10.68;2.60;;;20.20;99.90;;;;;;5119281;27;20115;-63
2022/05/26 10:39:35;;;;;;;5.47;1.77;;;20.20;99.90;;;;;;5142649;27;20046;-63
2022/05/26 10:42:19;;;;;;;5.55;1.73;;;20.20;99.90;;;;;;5054369;28;20090;-65
2022/05/26 10:45:06;;;;;;;4.80;1.58;;;20.30;99.90;;;;;;5057722;28;20108;-64
2022/05/26 10:48:01;;;;;;;7.47;1.70;;;20.40;99.90;;;;;;5056003;28;20123;-65
2022/05/26 10:50:44;;;;;;;6.57;2.17;;;20.50;99.90;;;;;;5051926;28;20110;-64
2022/05/26 10:53:23;;;;;;;6.18;1.95;;;20.40;99.90;;;;;;5097018;27;20047;-63
2022/05/26 10:56:34;;;;;;;6.88;1.88;;;20.20;99.90;;;;;;5144195;27;20066;-64
2022/05/26 10:59:07;;;;;;;6.05;1.65;;;20.20;99.90;;;;;;5099581;27;20047;-63
2022/05/26 11:01:45;;;;;;;6.95;1.88;;;20.40;99.90;;;;;;5139110;27;20267;-63
2022/05/26 11:04:33;;;;;;;5.60;1.33;;;20.40;99.90;;;;;;5141959;27;20035;-65
2022/05/26 11:07:07;;;;;;;6.75;1.63;;;20.40;99.90;;;;;;5144971;27;20451;-64
2022/05/26 11:09:40;;;;;;;;;;;20.50;99.90;;;;;;5142180;27;20108;-64
2022/05/26 11:12:24;;;;;;;6.85;1.65;;;20.40;99.90;;;;;;5142795;27;19922;-66
2022/05/26 11:17:44;;;;;;;7.55;1.80;;;20.50;99.90;;;;;;5139531;27;20122;-66
2022/05/26 11:20:22;;;;;;;3.92;1.40;;;20.50;99.90;;;;;;5142233;27;20042;-64
2022/05/26 11:22:53;;;;;;;4.05;1.20;;;20.60;99.90;;;;;;5138203;27;20125;-66
2022/05/26 11:25:34;;;;;;;9.02;1.70;;;20.80;99.90;;;;;;5154048;27;20268;-62
2022/05/26 11:28:04;;;;;;;5.93;1.98;;;20.90;99.90;;;;;;5145369;27;20050;-63
2022/05/26 11:36:33;;;;;;;7.28;1.85;;;20.60;99.90;;;;;;5142792;27;20391;-63
2022/05/26 11:39:01;;;;;;;7.18;1.70;;;20.60;99.90;;;;;;5141856;27;20038;-64
2022/05/26 11:41:49;;;;;;;4.72;1.70;;;20.40;99.90;;;;;;5141510;27;20101;-63
2022/05/26 11:44:42;;;;;;;6.70;2.17;;;20.50;99.90;;;;;;5117256;27;20375;-63
2022/05/26 11:47:23;;;;;;;9.48;2.45;;;20.40;99.90;;;;;;5143293;27;20389;-64
2022/05/26 11:49:49;;;;;;;9.02;2.03;;;20.40;99.90;;;;;;5142143;27;20035;-64
2022/05/26 11:52:25;;;;;;;4.68;1.70;;;20.50;99.90;;;;;;5118608;27;20447;-63
2022/05/26 11:54:59;;;;;;;6.93;1.85;;;20.60;99.90;;;;;;5141137;27;20378;-64
2022/05/26 11:57:45;;;;;;;8.15;2.42;;;20.50;99.90;;;;;;5139302;27;20474;-63
2022/05/26 12:00:34;;;;;;;8.85;1.48;;;20.50;99.90;;;;;;5125518;27;20367;-64
2022/05/26 12:03:28;;;;;;;5.72;1.33;;;20.70;99.90;;;;;;5099142;27;20055;-63
2022/05/26 12:06:11;;;;;;;5.88;1.98;;;20.70;99.90;;;;;;5137916;27;20414;-63
2022/05/26 12:08:58;;;;;;;4.55;1.60;;;20.70;99.90;;;;;;5135097;27;20039;-63
2022/05/26 12:11:51;;;;;;;6.95;2.03;;;20.70;99.90;;;;;;5129775;27;20038;-63
2022/05/26 12:14:32;;;;;;;7.70;1.77;;;20.50;99.90;;;;;;5129868;27;20084;-63
2022/05/26 12:17:25;;;;;;;6.38;1.60;;;20.60;99.90;;;;;;5099491;27;20058;-64
2022/05/26 12:19:51;;;;;;;5.97;1.60;;;20.80;99.90;;;;;;5138566;27;20428;-64
2022/05/26 12:22:32;;;;;;;6.53;1.60;;;20.90;99.90;;;;;;5103218;27;20054;-63
2022/05/26 12:25:15;;;;;;;5.60;1.27;;;20.80;99.90;;;;;;5137525;27;20426;-63
2022/05/26 12:27:56;;;;;;;7.28;1.83;;;20.90;99.90;;;;;;5148408;27;20031;-66
2022/05/26 12:30:33;;;;;;;6.50;1.58;;;20.90;99.90;;;;;;5106874;27;20039;-65
2022/05/26 12:33:14;;;;;;;7.13;2.30;;;21.20;99.90;;;;;;5146118;27;20058;-65
2022/05/26 12:36:12;;;;;;;6.53;1.45;;;21.30;99.90;;;;;;5152986;27;20175;-64
2022/05/26 12:38:49;;;;;;;6.13;1.48;;;21.30;99.90;;;;;;5148853;27;20371;-64
2022/05/26 12:41:20;;;;;;;7.85;1.95;;;21.30;99.90;;;;;;5145956;27;20113;-61
2022/05/26 12:43:51;;;;;;;6.22;2.20;;;21.30;99.90;;;;;;5152559;27;20086;-61
2022/05/26 12:46:20;;;;;;;5.88;1.58;;;21.20;99.90;;;;;;5148629;27;20371;-62
2022/05/26 12:49:05;;;;;;;5.95;1.85;;;21.00;99.90;;;;;;5151710;27;20039;-62
2022/05/26 12:51:37;;;;;;;6.55;1.42;;;21.00;99.90;;;;;;5147620;27;20045;-62
2022/05/26 12:54:08;;;;;;;10.45;2.03;;;21.00;99.90;;;;;;5145787;27;20161;-62
2022/05/26 12:56:39;;;;;;;6.53;2.10;;;21.00;99.90;;;;;;5137907;27;20039;-62
2022/05/26 12:59:06;;;;;;;6.72;1.80;;;21.30;99.90;;;;;;5115615;27;20039;-63
2022/05/26 13:01:32;;;;;;;6.20;1.92;;;21.20;99.90;;;;;;5138672;27;20071;-62
2022/05/26 13:04:09;;;;;;;5.25;1.48;;;21.10;99.90;;;;;;5140933;27;20043;-62
2022/05/26 13:06:38;;;;;;;9.10;2.20;;;20.80;99.90;;;;;;5139171;27;20379;-62
2022/05/26 13:09:18;;;;;;;5.95;1.80;;;20.80;99.90;;;;;;5139773;27;20114;-62
2022/05/26 13:11:58;;;;;;;7.60;1.38;;;21.00;99.90;;;;;;5122811;27;20027;-63
2022/05/26 13:14:47;;;;;;;7.68;1.75;;;21.10;99.90;;;;;;5123544;27;20386;-62
2022/05/26 13:17:25;;;;;;;6.22;1.60;;;21.10;99.90;;;;;;5135103;27;20054;-63
2022/05/26 13:19:56;;;;;;;8.63;1.85;;;21.10;99.90;;;;;;5137940;27;20026;-62
2022/05/26 13:22:25;;;;;;;11.00;5.78;;;21.00;99.90;;;;;;5143090;27;20694;-63
2022/05/26 13:24:58;;;;;;;9.73;4.05;;;21.00;99.90;;;;;;5143257;27;20168;-62
2022/05/26 13:27:48;;;;;;;17.48;6.97;;;21.10;99.90;;;;;;5143111;27;20102;-62
2022/05/26 13:33:07;;;;;;;9.82;2.45;;;21.10;99.90;;;;;;5131982;27;20054;-62
2022/05/26 13:35:39;;;;;;;7.00;2.00;;;20.90;99.90;;;;;;5133687;27;20091;-64
2022/05/26 13:38:17;;;;;;;10.50;3.78;;;20.80;99.90;;;;;;5145354;27;20105;-62
2022/05/26 13:40:43;;;;;;;11.48;4.78;;;20.80;99.90;;;;;;5132218;27;20102;-62
2022/05/26 13:43:12;;;;;;;8.30;3.15;;;20.60;99.90;;;;;;5136129;27;20443;-62
2022/05/26 13:45:41;;;;;;;8.95;2.42;;;20.60;99.90;;;;;;5136654;27;20045;-63
2022/05/26 13:48:45;;;;;;;8.68;2.30;;;20.60;99.90;;;;;;5143268;27;20035;-63
2022/05/26 13:51:45;;;;;;;8.43;2.30;;;20.60;99.90;;;;;;5082797;27;20053;-67
2022/05/26 13:54:29;;;;;;;12.93;4.15;;;20.60;99.90;;;;;;5092653;27;20088;-63